< Typhoon 199208 1992 Season Typhoon 199210 >
Typhoon 199209 (IRVING)
General InformationTrack Information on Google MapsDetailed Wind InformationList of All Images || Disaster Info.ResourceGoogle EarthGE AnimationAtom FeedGeoJSON
Detalied Best Track (Time Zone = UTC)
Year Month Day Hour Lat. Long. Pressure (hPa) Wind (kt) Class Image Chart
1992 7 31 00 20.0 131.0 1008 0 2 Image Chart
1992 7 31 06 21.0 131.5 1006 0 2 Image Chart
1992 7 31 12 21.8 131.4 1006 0 2 Image Chart
1992 7 31 18 22.5 131.4 1006 0 2 Image Chart
1992 8 1 00 23.3 131.0 1006 0 2 Image Chart
1992 8 1 06 24.0 130.8 1006 0 2 Image Chart
1992 8 1 12 24.3 130.9 1004 0 2 Image Chart
1992 8 1 18 24.7 131.0 1000 0 2 Image Chart
1992 8 2 00 25.2 131.5 998 35 3 Image Chart
1992 8 2 03 26.0 131.8 998 35 3 Image Chart
1992 8 2 06 26.7 131.8 996 35 3 Image Chart
1992 8 2 09 26.8 131.8 996 35 3 Image Chart
1992 8 2 12 27.1 131.8 996 35 3 Image Chart
1992 8 2 15 27.3 131.8 994 40 3 Image Chart
1992 8 2 18 27.6 131.8 994 40 3 Image Chart
1992 8 2 21 27.8 131.9 992 45 3 Image Chart
1992 8 3 00 28.3 132.4 990 45 3 Image Chart
1992 8 3 03 29.0 132.9 990 45 3 Image Chart
1992 8 3 06 29.4 133.3 985 50 4 Image Chart
1992 8 3 09 29.9 133.5 985 50 4 Image Chart
1992 8 3 12 30.3 133.8 985 50 4 Image Chart
1992 8 3 15 30.7 134.1 980 55 4 Image Chart
1992 8 3 18 31.2 134.4 980 55 4 Image Chart
1992 8 3 21 31.8 134.3 980 55 4 Image Chart
1992 8 4 00 32.2 134.0 980 55 4 Image Chart
1992 8 4 03 32.6 133.6 985 50 4 Image Chart
1992 8 4 04 32.7 133.1 990 45 3 Image Chart
1992 8 4 06 33.3 132.3 992 45 3 Image Chart
1992 8 4 09 33.8 131.5 994 40 3 Image Chart
1992 8 4 10 33.7 131.1 996 40 3 Image Chart
1992 8 4 12 33.6 130.2 1000 0 2 Image Chart
1992 8 4 18 33.6 129.2 1002 0 2 Image Chart
1992 8 5 00 33.8 128.5 1004 0 2 Image Chart
1992 8 5 06 34.8 127.7 1006 0 2 Image Chart
1992 8 5 12 36.0 126.3 1006 0 2 Image Chart
Japan Meteorological Agency Best Track Data | Correction Date : 1992-12-25
< Typhoon 199208 1992 Season Typhoon 199210 >

Help